Latest Weather Observations for Gatton

IDQ60901

Issued at 8:31 pm EST Friday 4 September 2015 (issued every 10 minutes, with the page automatically refreshed every 10 minutes)

About weather observations | Map of Brisbane area stations | Latest observations for Brisbane area | Other Formats
Station Details ID: 040082 Name: UNIVERSITY OF QUEENSLAND GATTON Lat: -27.54 Lon: 152.34 Height: 89.0 m
Data from the previous 72 hours. | See also: Recent months at Gatton
Date/Time
EST
Tmp

°C
App
Tmp
°C
Dew
Point
°C
Rel
Hum
%
Delta-T

°C
Wind Press
QNH
hPa
Press
MSL
hPa
Rain
since
9 am
mm
Dir
 
Spd
km/h
Gust
km/h
Spd
kts
Gust
kts
04/08:30pm 16.4 13.8 7.6 56 4.4 ESE 11 13 6 7 - - 0.0
04/08:00pm 17.8 16.0 7.8 52 5.1 SE 7 9 4 5 - - 0.0
04/07:30pm 18.8 17.7 8.5 51 5.4 NE 4 9 2 5 - - 0.0
04/07:00pm 20.1 17.1 7.8 45 6.4 SSE 13 20 7 11 - - 0.0
04/06:30pm 20.2 17.6 7.9 45 6.4 SE 11 15 6 8 - - 0.0
04/06:00pm 20.4 17.9 8.1 45 6.4 SE 11 15 6 8 - - 0.0
04/05:30pm 20.9 17.5 7.5 42 6.9 SE 15 20 8 11 - - 0.0
04/05:00pm 22.1 18.7 7.5 39 7.6 SE 15 22 8 12 - - 0.0
04/04:30pm 22.9 18.6 7.0 36 8.2 ESE 19 26 10 14 - - 0.0
04/04:00pm 23.4 19.1 7.1 35 8.5 ESE 19 30 10 16 - - 0.0
04/03:30pm 24.0 19.6 7.2 34 8.8 ESE 20 30 11 16 - - 0.0
04/03:00pm 24.0 19.6 6.7 33 9.0 ESE 19 32 10 17 - - 0.0
04/02:30pm 24.2 19.3 6.9 33 9.0 ESE 22 35 12 19 - - 0.0
04/02:00pm 24.0 20.0 6.7 33 9.0 S 17 30 9 16 - - 0.0
04/01:30pm 24.0 19.7 7.2 34 8.8 SE 19 28 10 15 - - 0.0
04/01:00pm 23.9 19.3 6.7 33 8.9 ESE 20 30 11 16 - - 0.0
04/12:30pm 22.9 19.6 6.6 35 8.4 ESE 13 22 7 12 - - 0.0
04/12:00pm 23.3 20.2 7.4 36 8.3 SE 13 22 7 12 - - 0.0
04/11:30am 22.4 20.0 7.0 37 8.0 E 9 15 5 8 - - 0.0
04/11:00am 21.1 19.1 7.0 40 7.2 WNW 7 11 4 6 - - 0.0
04/10:30am 20.1 18.2 7.5 44 6.5 SE 7 15 4 8 - - 0.0
04/10:00am 19.4 15.9 7.2 45 6.2 W 15 20 8 11 - - 0.0
04/09:30am 18.0 13.7 6.8 48 5.6 W 19 24 10 13 - - 0.0
04/09:00am 17.1 12.8 7.7 54 4.8 W 20 28 11 15 - - 0.0
04/08:30am 15.9 11.0 7.1 56 4.4 W 22 30 12 16 - - 0.0
04/08:00am 15.3 10.9 7.3 59 4.0 W 20 28 11 15 - - 0.0
04/07:30am 14.5 9.7 7.3 62 3.6 W 22 32 12 17 - - 0.0
04/07:00am 13.2 8.7 7.0 66 3.0 W 20 28 11 15 - - 0.0
04/06:30am 12.4 8.8 6.9 69 2.6 WNW 15 20 8 11 - - 0.0
04/06:00am 11.7 7.7 6.6 71 2.4 W 17 24 9 13 - - 0.0
04/05:30am 11.6 9.0 6.3 70 2.5 W 9 15 5 8 - - 0.0
04/05:00am 11.9 6.2 6.6 70 2.5 WSW 26 37 14 20 - - 0.0
04/04:30am 11.8 8.1 6.5 70 2.5 WSW 15 22 8 12 - - 0.0
04/04:00am 12.1 8.8 6.4 68 2.7 W 13 20 7 11 - - 0.0
04/03:30am 11.9 9.0 6.4 69 2.6 WSW 11 19 6 10 - - 0.0
04/03:00am 12.7 9.0 6.1 64 3.1 W 15 20 8 11 - - 0.0
04/02:30am 13.3 7.9 6.2 62 3.4 WSW 24 32 13 17 - - 0.0
04/02:00am 13.8 10.4 5.9 59 3.8 WSW 13 24 7 13 - - 0.0
04/01:30am 12.8 9.0 5.7 62 3.3 WSW 15 20 8 11 - - 0.0
04/01:00am 13.7 9.1 5.8 59 3.8 WSW 19 26 10 14 - - 0.0
04/12:30am 14.0 9.8 5.9 58 3.9 WSW 17 24 9 13 - - 0.0
04/12:00am 13.5 10.1 5.7 59 3.7 WSW 13 19 7 10 - - 0.0
 
Date/Time
EST
Tmp

°C
App
Tmp
°C
Dew
Point
°C
Rel
Hum
%
Delta-T

°C
Wind Press
QNH
hPa
Press
MSL
hPa
Rain
since
9 am
mm
Dir
 
Spd
km/h
Gust
km/h
Spd
kts
Gust
kts
03/11:30pm 13.9 10.5 6.0 59 3.8 W 13 19 7 10 - - 0.0
03/11:00pm 13.8 10.1 6.2 60 3.6 W 15 19 8 10 - - 0.0
03/10:30pm 14.5 10.4 6.3 58 4.0 WSW 17 22 9 12 - - 0.0
03/10:00pm 14.8 10.2 6.4 57 4.1 W 20 28 11 15 - - 0.0
03/09:30pm 15.1 10.1 6.4 56 4.2 W 22 32 12 17 - - 0.0
03/09:00pm 15.7 10.3 6.4 54 4.5 WSW 24 33 13 18 - - 0.0
03/08:30pm 15.9 11.4 6.1 52 4.8 W 19 32 10 17 - - 0.0
03/08:00pm 16.8 12.0 5.4 47 5.5 WSW 20 35 11 19 - - 0.0
03/07:30pm 17.5 12.5 4.8 43 6.1 W 20 28 11 15 - - 0.0
03/07:00pm 18.2 13.9 5.1 42 6.3 W 17 28 9 15 - - 0.0
03/06:30pm 18.7 13.7 4.5 39 6.8 WSW 20 30 11 16 - - 0.0
03/06:00pm 19.3 14.3 4.6 38 7.1 W 20 28 11 15 - - 0.0
03/05:30pm 20.1 13.2 4.6 36 7.5 W 30 46 16 25 - - 0.0
03/05:24pm 20.4 13.8 4.4 35 7.8 W 28 46 15 25 - - 0.0
03/05:00pm 20.8 13.9 4.4 34 8.0 W 30 46 16 25 - - 0.0
03/04:47pm 21.6 14.1 4.2 32 8.5 W 33 52 18 28 - - 0.0
03/04:30pm 22.0 14.6 4.1 31 8.7 W 32 46 17 25 - - 0.0
03/04:00pm 22.1 14.6 3.3 29 9.0 W 32 56 17 30 - - 0.0
03/03:30pm 22.8 14.0 3.4 28 9.4 W 39 59 21 32 - - 0.0
03/03:00pm 23.2 15.0 2.7 26 9.8 WNW 35 59 19 32 - - 0.0
03/02:30pm 23.3 15.1 2.7 26 9.9 W 35 54 19 29 - - 0.0
03/02:03pm 23.2 14.9 2.1 25 10.0 WNW 35 54 19 29 - - 0.0
03/02:00pm 22.9 13.8 1.8 25 9.9 WNW 39 54 21 29 - - 0.0
03/01:30pm 23.1 15.3 3.1 27 9.7 W 33 52 18 28 - - 0.0
03/01:00pm 22.7 15.9 3.3 28 9.4 WNW 28 50 15 27 - - 0.0
03/12:33pm 22.4 15.8 4.0 30 9.0 WNW 28 46 15 25 - - 0.0
03/12:30pm 22.4 15.4 4.0 30 9.0 WNW 30 46 16 25 - - 0.0
03/12:00pm 22.0 13.8 4.6 32 8.6 W 37 56 20 30 - - 0.0
03/11:35am 21.9 13.9 5.8 35 8.1 W 37 56 20 30 - - 0.0
03/11:30am 21.7 13.7 5.6 35 8.1 W 37 52 20 28 - - 0.0
03/11:01am 21.6 14.9 7.4 40 7.4 W 32 50 17 27 - - 0.0
03/11:00am 21.7 14.7 6.8 38 7.6 W 33 44 18 24 - - 0.0
03/10:30am 20.9 14.0 7.2 41 7.0 W 33 46 18 25 - - 0.0
03/10:00am 20.7 14.4 7.3 42 6.9 W 30 43 16 23 - - 0.0
03/09:30am 20.3 15.5 8.9 48 6.0 W 24 37 13 20 - - 0.0
03/09:00am 18.1 16.6 15.4 84 1.6 W 17 26 9 14 - - 5.2
03/08:30am 16.0 15.3 14.2 89 1.0 WSW 11 20 6 11 - - 5.2
03/08:00am 15.7 15.0 14.2 91 0.9 W 11 15 6 8 - - 5.2
03/07:30am 14.4 14.3 13.3 93 0.6 W 6 7 3 4 - - 5.2
03/07:00am 13.9 13.5 13.0 94 0.5 W 7 11 4 6 - - 5.2
03/06:30am 13.6 13.3 12.7 94 0.5 W 6 9 3 5 - - 5.2
03/06:00am 13.6 13.3 12.7 94 0.5 NNW 6 11 3 6 - - 5.2
03/05:30am 13.7 13.2 12.6 93 0.6 WSW 7 13 4 7 - - 3.8
03/05:00am 13.7 13.4 12.8 94 0.5 WSW 6 9 3 5 - - 3.6
03/04:30am 13.4 13.0 12.5 94 0.5 SW 6 9 3 5 - - 3.6
03/04:00am 13.3 14.1 12.4 94 0.5 CALM 0 0 0 0 - - 3.6
03/03:30am 13.1 12.7 12.3 95 0.4 S 6 7 3 4 - - 3.6
03/03:00am 12.4 11.5 11.5 94 0.5 SSW 7 9 4 5 - - 3.6
03/02:30am 12.6 11.9 11.3 92 0.7 SE 6 9 3 5 - - 3.6
03/02:00am 13.1 12.3 11.8 92 0.7 ESE 7 17 4 9 - - 3.6
03/01:30am 13.1 11.5 11.7 91 0.7 SE 11 13 6 7 - - 2.8
03/01:00am 13.8 13.0 11.8 88 1.1 NW 7 9 4 5 - - 1.4
03/12:30am 14.1 12.8 11.1 82 1.6 N 9 13 5 7 - - 0.0
03/12:00am 14.3 13.0 11.3 82 1.6 ESE 9 11 5 6 - - 0.0
 
Date/Time
EST
Tmp

°C
App
Tmp
°C
Dew
Point
°C
Rel
Hum
%
Delta-T

°C
Wind Press
QNH
hPa
Press
MSL
hPa
Rain
since
9 am
mm
Dir
 
Spd
km/h
Gust
km/h
Spd
kts
Gust
kts
02/11:30pm 14.6 13.4 10.4 76 2.2 WSW 7 11 4 6 - - 0.0
02/11:00pm 14.6 14.6 11.0 79 1.9 S 2 7 1 4 - - 0.0
02/10:30pm 14.7 13.4 9.9 73 2.5 WNW 7 9 4 5 - - 0.0
02/10:00pm 15.1 15.1 9.7 70 2.8 CALM 0 4 0 2 - - 0.0
02/09:30pm 15.4 13.8 8.9 65 3.3 ESE 7 13 4 7 - - 0.0
02/09:00pm 16.0 13.7 9.0 63 3.6 SE 11 13 6 7 - - 0.0
02/08:30pm 15.3 12.5 7.1 58 4.1 SE 11 13 6 7 - - 0.0
02/08:00pm 15.3 13.2 6.6 56 4.3 SSE 7 9 4 5 - - 0.0
02/07:30pm 15.8 13.8 7.3 57 4.2 SSE 7 9 4 5 - - 0.0
02/07:00pm 16.1 14.1 7.1 55 4.5 ESE 7 9 4 5 - - 0.0
02/06:30pm 17.5 15.2 7.5 52 5.1 E 9 11 5 6 - - 0.0
02/06:00pm 19.6 16.6 7.7 46 6.1 ENE 13 19 7 10 - - 0.0
02/05:30pm 21.6 17.9 7.8 41 7.2 ENE 17 20 9 11 - - 0.0
02/05:00pm 23.3 19.0 7.0 35 8.5 ENE 19 28 10 15 - - 0.0
02/04:30pm 25.7 21.8 3.6 24 11.0 E 13 17 7 9 - - 0.0
02/04:00pm 26.0 21.3 3.3 23 11.2 ENE 17 22 9 12 - - 0.0
02/03:30pm 26.6 22.5 4.4 24 11.2 E 15 22 8 12 - - 0.0
02/03:00pm 25.9 22.2 4.4 25 10.8 E 13 20 7 11 - - 0.0
02/02:30pm 25.9 22.4 5.5 27 10.5 ENE 13 20 7 11 - - 0.0
02/02:00pm 25.0 21.7 4.7 27 10.2 E 11 20 6 11 - - 0.0
02/01:30pm 24.7 21.4 4.5 27 10.1 NE 11 19 6 10 - - 0.0
02/01:00pm 24.2 21.1 5.5 30 9.5 NE 11 17 6 9 - - 0.0
02/12:30pm 22.9 19.4 3.4 28 9.5 NE 11 17 6 9 - - 0.0
02/12:00pm 22.7 18.9 3.8 29 9.2 ENE 13 20 7 11 - - 0.0
02/11:30am 22.1 18.4 4.2 31 8.8 NNE 13 17 7 9 - - 0.0
02/11:00am 21.0 17.4 3.2 31 8.5 E 11 13 6 7 - - 0.0
02/10:30am 18.9 15.9 4.3 38 7.0 ENE 9 13 5 7 - - 0.0
02/10:00am 17.5 15.0 4.8 43 6.1 NE 7 13 4 7 - - 0.0
02/09:30am 15.3 12.9 4.1 47 5.2 ESE 6 11 3 6 - - 0.0
02/09:00am 14.3 12.5 3.7 49 4.8 SW 2 11 1 6 - - 0.0
02/08:30am 12.5 10.4 3.7 55 4.0 N 4 6 2 3 - - 0.0
02/08:00am 11.0 9.2 3.5 60 3.3 NW 2 6 1 3 - - 0.0
02/07:30am 8.3 5.6 3.8 73 2.0 WSW 7 9 4 5 - - 0.0
02/07:00am 6.6 4.0 3.4 80 1.4 W 6 7 3 4 - - 0.0
02/06:30am 5.0 2.3 2.5 84 1.0 SSW 6 7 3 4 - - 0.0
02/06:00am 4.0 2.3 1.7 85 0.9 CALM 0 6 0 3 - - 0.0
02/05:30am 5.1 2.5 3.0 86 0.9 WNW 6 9 3 5 - - 0.0
02/05:00am 3.9 0.9 1.8 86 0.8 WSW 7 9 4 5 - - 0.0
02/04:30am 3.6 0.5 1.2 84 0.9 WSW 7 9 4 5 - - 0.0
02/04:00am 3.9 0.8 1.1 82 1.1 W 7 11 4 6 - - 0.0
02/03:30am 3.7 0.4 0.4 79 1.3 WSW 7 9 4 5 - - 0.0
02/03:00am 4.7 1.8 1.6 80 1.2 WNW 6 9 3 5 - - 0.0
02/02:30am 5.3 1.5 1.6 77 1.5 WSW 11 13 6 7 - - 0.0
02/02:00am 5.3 1.5 1.6 77 1.5 WSW 11 13 6 7 - - 0.0
02/01:30am 5.8 2.7 1.3 73 1.8 W 7 9 4 5 - - 0.0
02/01:00am 6.6 3.2 1.7 71 2.0 WSW 9 11 5 6 - - 0.0
02/12:30am 6.9 3.8 1.4 68 2.2 WSW 7 11 4 6 - - 0.0
02/12:00am 7.3 4.4 1.2 65 2.5 W 6 9 3 5 - - 0.0
 
Date/Time
EST
Tmp

°C
App
Tmp
°C
Dew
Point
°C
Rel
Hum
%
Delta-T

°C
Wind Press
QNH
hPa
Press
MSL
hPa
Rain
since
9 am
mm
Dir
 
Spd
km/h
Gust
km/h
Spd
kts
Gust
kts
01/11:30pm 8.0 4.6 1.6 64 2.6 W 9 13 5 7 - - 0.0
01/11:00pm 8.3 5.3 1.9 64 2.7 W 7 11 4 6 - - 0.0
01/10:30pm 8.4 5.9 1.3 61 2.9 W 4 7 2 4 - - 0.0
01/10:00pm 9.8 6.9 1.7 57 3.4 W 6 9 3 5 - - 0.0
01/09:30pm 10.5 6.3 1.6 54 3.7 W 13 17 7 9 - - 0.0
01/09:00pm 10.8 7.0 1.6 53 3.9 W 11 15 6 8 - - 0.0

Latest Capital City Observations: Canberra | Sydney | Melbourne | Brisbane | Adelaide | Perth | Hobart | Darwin

Other Formats:

Comma delimited format used in spreadsheet applications
http://www.bom.gov.au/fwo/IDQ60901/IDQ60901.94562.axf

JavaScript Object Notation format (JSON) in row-major order
http://www.bom.gov.au/fwo/IDQ60901/IDQ60901.94562.json